sensor_id;sensor_type;location;lat;lon;timestamp;temperature;humidity
10336;DHT22;5213;53.548;9.930;2023-08-06T00:00:07;15.10;99.90
10336;DHT22;5213;53.548;9.930;2023-08-06T00:02:34;15.10;1.00
10336;DHT22;5213;53.548;9.930;2023-08-06T00:04:59;15.10;1.00
10336;DHT22;5213;53.548;9.930;2023-08-06T00:07:25;15.00;1.00
10336;DHT22;5213;53.548;9.930;2023-08-06T00:09:51;15.10;1.00
10336;DHT22;5213;53.548;9.930;2023-08-06T00:12:16;15.10;1.00
10336;DHT22;5213;53.548;9.930;2023-08-06T00:14:42;15.10;99.90
10336;DHT22;5213;53.548;9.930;2023-08-06T00:17:08;15.00;1.00
10336;DHT22;5213;53.548;9.930;2023-08-06T00:19:33;15.10;1.00
10336;DHT22;5213;53.548;9.930;2023-08-06T00:21:59;15.10;1.00
10336;DHT22;5213;53.548;9.930;2023-08-06T00:24:25;15.00;1.00
10336;DHT22;5213;53.548;9.930;2023-08-06T00:26:50;15.10;1.00
10336;DHT22;5213;53.548;9.930;2023-08-06T00:29:16;15.20;1.00
10336;DHT22;5213;53.548;9.930;2023-08-06T00:31:42;15.10;1.00
10336;DHT22;5213;53.548;9.930;2023-08-06T00:34:08;15.00;1.00
10336;DHT22;5213;53.548;9.930;2023-08-06T00:36:33;15.10;1.00
10336;DHT22;5213;53.548;9.930;2023-08-06T00:38:59;15.10;1.00
10336;DHT22;5213;53.548;9.930;2023-08-06T00:41:24;15.10;99.90
10336;DHT22;5213;53.548;9.930;2023-08-06T00:43:50;15.10;1.00
10336;DHT22;5213;53.548;9.930;2023-08-06T00:46:16;15.20;99.90
10336;DHT22;5213;53.548;9.930;2023-08-06T00:48:42;15.20;1.00
10336;DHT22;5213;53.548;9.930;2023-08-06T00:51:10;15.20;1.00
10336;DHT22;5213;53.548;9.930;2023-08-06T00:53:35;15.20;1.00
10336;DHT22;5213;53.548;9.930;2023-08-06T00:56:02;15.10;1.00
10336;DHT22;5213;53.548;9.930;2023-08-06T00:58:28;15.10;99.90
10336;DHT22;5213;53.548;9.930;2023-08-06T01:00:54;15.10;1.00
10336;DHT22;5213;53.548;9.930;2023-08-06T01:03:19;15.10;1.00
10336;DHT22;5213;53.548;9.930;2023-08-06T01:05:45;15.10;1.00
10336;DHT22;5213;53.548;9.930;2023-08-06T01:08:40;15.10;1.00
10336;DHT22;5213;53.548;9.930;2023-08-06T01:13:49;15.10;1.00
10336;DHT22;5213;53.548;9.930;2023-08-06T01:16:18;15.10;1.00
10336;DHT22;5213;53.548;9.930;2023-08-06T01:18:43;15.10;1.00
10336;DHT22;5213;53.548;9.930;2023-08-06T01:21:13;15.10;1.00
10336;DHT22;5213;53.548;9.930;2023-08-06T01:23:39;15.10;1.00
10336;DHT22;5213;53.548;9.930;2023-08-06T01:26:36;15.10;1.00
10336;DHT22;5213;53.548;9.930;2023-08-06T01:29:34;15.10;1.00
10336;DHT22;5213;53.548;9.930;2023-08-06T01:32:01;15.10;1.00
10336;DHT22;5213;53.548;9.930;2023-08-06T01:34:31;15.10;1.00
10336;DHT22;5213;53.548;9.930;2023-08-06T01:36:58;15.10;99.90
10336;DHT22;5213;53.548;9.930;2023-08-06T01:39:25;15.10;65.60
10336;DHT22;5213;53.548;9.930;2023-08-06T01:41:50;15.10;1.00
10336;DHT22;5213;53.548;9.930;2023-08-06T01:44:16;15.10;99.90
10336;DHT22;5213;53.548;9.930;2023-08-06T01:46:42;15.20;99.90
10336;DHT22;5213;53.548;9.930;2023-08-06T01:49:08;15.20;1.00
10336;DHT22;5213;53.548;9.930;2023-08-06T01:51:33;15.20;1.00
10336;DHT22;5213;53.548;9.930;2023-08-06T01:53:59;15.20;1.00
10336;DHT22;5213;53.548;9.930;2023-08-06T01:56:24;15.20;1.00
10336;DHT22;5213;53.548;9.930;2023-08-06T01:58:50;15.20;99.90
10336;DHT22;5213;53.548;9.930;2023-08-06T02:01:16;15.20;1.00
10336;DHT22;5213;53.548;9.930;2023-08-06T02:03:41;15.30;1.00
10336;DHT22;5213;53.548;9.930;2023-08-06T02:06:07;15.20;1.00
10336;DHT22;5213;53.548;9.930;2023-08-06T02:08:33;15.20;1.00
10336;DHT22;5213;53.548;9.930;2023-08-06T02:10:58;15.20;30.60
10336;DHT22;5213;53.548;9.930;2023-08-06T02:13:24;15.10;99.90
10336;DHT22;5213;53.548;9.930;2023-08-06T02:15:50;15.10;99.90
10336;DHT22;5213;53.548;9.930;2023-08-06T02:18:16;15.10;99.90
10336;DHT22;5213;53.548;9.930;2023-08-06T02:20:42;15.20;1.00
10336;DHT22;5213;53.548;9.930;2023-08-06T02:23:08;15.10;1.00
10336;DHT22;5213;53.548;9.930;2023-08-06T02:25:34;15.20;1.00
10336;DHT22;5213;53.548;9.930;2023-08-06T02:28:00;15.10;1.00
10336;DHT22;5213;53.548;9.930;2023-08-06T02:30:25;15.10;99.90
10336;DHT22;5213;53.548;9.930;2023-08-06T02:32:51;15.10;1.00
10336;DHT22;5213;53.548;9.930;2023-08-06T02:35:17;15.10;1.00
10336;DHT22;5213;53.548;9.930;2023-08-06T02:37:42;15.10;99.90
10336;DHT22;5213;53.548;9.930;2023-08-06T02:40:08;15.10;1.00
10336;DHT22;5213;53.548;9.930;2023-08-06T02:42:34;15.10;1.00
10336;DHT22;5213;53.548;9.930;2023-08-06T02:44:59;15.00;1.00
10336;DHT22;5213;53.548;9.930;2023-08-06T02:47:25;15.20;1.00
10336;DHT22;5213;53.548;9.930;2023-08-06T02:49:51;15.00;1.00
10336;DHT22;5213;53.548;9.930;2023-08-06T02:52:16;15.00;1.00
10336;DHT22;5213;53.548;9.930;2023-08-06T02:54:42;15.00;99.90
10336;DHT22;5213;53.548;9.930;2023-08-06T02:57:08;15.00;99.90
10336;DHT22;5213;53.548;9.930;2023-08-06T02:59:34;15.00;1.00
10336;DHT22;5213;53.548;9.930;2023-08-06T03:01:59;15.00;1.00
10336;DHT22;5213;53.548;9.930;2023-08-06T03:04:25;15.30;5.00
10336;DHT22;5213;53.548;9.930;2023-08-06T03:06:51;14.90;1.00
10336;DHT22;5213;53.548;9.930;2023-08-06T03:09:17;15.00;1.00
10336;DHT22;5213;53.548;9.930;2023-08-06T03:11:43;15.00;1.00
10336;DHT22;5213;53.548;9.930;2023-08-06T03:14:08;15.00;65.30
10336;DHT22;5213;53.548;9.930;2023-08-06T03:16:34;15.10;99.90
10336;DHT22;5213;53.548;9.930;2023-08-06T03:19:00;15.10;99.90
10336;DHT22;5213;53.548;9.930;2023-08-06T03:21:25;15.00;1.00
10336;DHT22;5213;53.548;9.930;2023-08-06T03:23:51;15.00;1.00
10336;DHT22;5213;53.548;9.930;2023-08-06T03:26:17;15.00;1.00
10336;DHT22;5213;53.548;9.930;2023-08-06T03:28:42;15.00;1.00
10336;DHT22;5213;53.548;9.930;2023-08-06T03:31:08;15.00;1.00
10336;DHT22;5213;53.548;9.930;2023-08-06T03:33:33;15.10;1.00
10336;DHT22;5213;53.548;9.930;2023-08-06T03:35:59;15.10;1.00
10336;DHT22;5213;53.548;9.930;2023-08-06T03:38:25;15.20;1.00
10336;DHT22;5213;53.548;9.930;2023-08-06T03:40:51;15.10;1.00
10336;DHT22;5213;53.548;9.930;2023-08-06T03:43:16;15.10;1.00
10336;DHT22;5213;53.548;9.930;2023-08-06T03:45:42;15.10;99.90
10336;DHT22;5213;53.548;9.930;2023-08-06T03:48:08;15.10;99.90
10336;DHT22;5213;53.548;9.930;2023-08-06T03:50:34;15.10;99.90
10336;DHT22;5213;53.548;9.930;2023-08-06T03:53:00;15.10;1.00
10336;DHT22;5213;53.548;9.930;2023-08-06T03:55:26;15.10;99.90
10336;DHT22;5213;53.548;9.930;2023-08-06T03:57:52;15.10;99.90
10336;DHT22;5213;53.548;9.930;2023-08-06T04:00:17;15.10;99.90
10336;DHT22;5213;53.548;9.930;2023-08-06T04:02:43;15.10;99.90
10336;DHT22;5213;53.548;9.930;2023-08-06T04:05:09;15.10;99.90
10336;DHT22;5213;53.548;9.930;2023-08-06T04:07:35;15.10;99.90
10336;DHT22;5213;53.548;9.930;2023-08-06T04:10:02;15.20;99.90
10336;DHT22;5213;53.548;9.930;2023-08-06T04:12:28;14.90;99.90
10336;DHT22;5213;53.548;9.930;2023-08-06T04:14:55;15.20;99.90
10336;DHT22;5213;53.548;9.930;2023-08-06T04:17:21;15.20;99.90
10336;DHT22;5213;53.548;9.930;2023-08-06T04:19:51;15.10;99.90
10336;DHT22;5213;53.548;9.930;2023-08-06T04:22:17;15.30;99.90
10336;DHT22;5213;53.548;9.930;2023-08-06T04:24:43;15.10;99.90
10336;DHT22;5213;53.548;9.930;2023-08-06T04:27:09;15.10;99.90
10336;DHT22;5213;53.548;9.930;2023-08-06T04:29:35;15.10;99.90
10336;DHT22;5213;53.548;9.930;2023-08-06T04:32:01;15.10;99.90
10336;DHT22;5213;53.548;9.930;2023-08-06T04:34:26;15.10;99.90
10336;DHT22;5213;53.548;9.930;2023-08-06T04:36:52;15.20;99.90
10336;DHT22;5213;53.548;9.930;2023-08-06T04:39:18;15.00;99.90
10336;DHT22;5213;53.548;9.930;2023-08-06T04:41:43;15.30;99.90
10336;DHT22;5213;53.548;9.930;2023-08-06T04:44:09;15.00;99.90
10336;DHT22;5213;53.548;9.930;2023-08-06T04:46:35;15.00;99.90
10336;DHT22;5213;53.548;9.930;2023-08-06T04:49:01;15.30;99.90
10336;DHT22;5213;53.548;9.930;2023-08-06T04:51:26;15.10;99.90
10336;DHT22;5213;53.548;9.930;2023-08-06T04:53:52;15.00;99.90
10336;DHT22;5213;53.548;9.930;2023-08-06T04:56:18;15.10;99.90
10336;DHT22;5213;53.548;9.930;2023-08-06T04:58:43;15.10;99.90
10336;DHT22;5213;53.548;9.930;2023-08-06T05:01:09;15.10;99.90
10336;DHT22;5213;53.548;9.930;2023-08-06T05:03:35;15.20;99.90
10336;DHT22;5213;53.548;9.930;2023-08-06T05:06:00;15.10;99.90
10336;DHT22;5213;53.548;9.930;2023-08-06T05:08:26;15.10;99.90
10336;DHT22;5213;53.548;9.930;2023-08-06T05:10:52;15.10;99.90
10336;DHT22;5213;53.548;9.930;2023-08-06T05:13:17;15.20;99.90
10336;DHT22;5213;53.548;9.930;2023-08-06T05:15:43;15.20;99.90
10336;DHT22;5213;53.548;9.930;2023-08-06T05:18:10;15.40;99.90
10336;DHT22;5213;53.548;9.930;2023-08-06T05:20:37;15.20;99.90
10336;DHT22;5213;53.548;9.930;2023-08-06T05:23:03;15.20;99.90
10336;DHT22;5213;53.548;9.930;2023-08-06T05:25:29;15.30;99.90
10336;DHT22;5213;53.548;9.930;2023-08-06T05:27:55;15.40;99.90
10336;DHT22;5213;53.548;9.930;2023-08-06T05:30:21;15.30;99.90
10336;DHT22;5213;53.548;9.930;2023-08-06T05:32:47;15.40;99.90
10336;DHT22;5213;53.548;9.930;2023-08-06T05:35:12;15.40;99.90
10336;DHT22;5213;53.548;9.930;2023-08-06T05:37:38;15.50;99.90
10336;DHT22;5213;53.548;9.930;2023-08-06T05:40:04;15.60;99.90
10336;DHT22;5213;53.548;9.930;2023-08-06T05:42:30;15.70;99.90
10336;DHT22;5213;53.548;9.930;2023-08-06T05:44:56;15.70;99.90
10336;DHT22;5213;53.548;9.930;2023-08-06T05:47:21;15.90;99.90
10336;DHT22;5213;53.548;9.930;2023-08-06T05:49:47;15.90;99.90
10336;DHT22;5213;53.548;9.930;2023-08-06T05:52:12;16.00;99.90
10336;DHT22;5213;53.548;9.930;2023-08-06T05:54:38;16.10;99.90
10336;DHT22;5213;53.548;9.930;2023-08-06T05:57:04;16.10;99.90
10336;DHT22;5213;53.548;9.930;2023-08-06T05:59:30;16.20;99.90
10336;DHT22;5213;53.548;9.930;2023-08-06T06:01:55;16.20;99.90
10336;DHT22;5213;53.548;9.930;2023-08-06T06:04:21;16.10;99.90
10336;DHT22;5213;53.548;9.930;2023-08-06T06:06:47;16.20;99.90
10336;DHT22;5213;53.548;9.930;2023-08-06T06:09:13;16.20;99.90
10336;DHT22;5213;53.548;9.930;2023-08-06T06:11:38;16.40;99.90
10336;DHT22;5213;53.548;9.930;2023-08-06T06:14:04;16.30;99.90
10336;DHT22;5213;53.548;9.930;2023-08-06T06:16:30;16.30;99.90
10336;DHT22;5213;53.548;9.930;2023-08-06T06:18:56;16.20;99.90
10336;DHT22;5213;53.548;9.930;2023-08-06T06:21:23;16.20;99.90
10336;DHT22;5213;53.548;9.930;2023-08-06T06:23:49;16.20;99.90
10336;DHT22;5213;53.548;9.930;2023-08-06T06:26:17;16.20;99.90
10336;DHT22;5213;53.548;9.930;2023-08-06T06:28:43;16.20;99.90
10336;DHT22;5213;53.548;9.930;2023-08-06T06:31:09;16.20;99.90
10336;DHT22;5213;53.548;9.930;2023-08-06T06:33:35;16.20;99.90
10336;DHT22;5213;53.548;9.930;2023-08-06T06:36:01;16.30;99.90
10336;DHT22;5213;53.548;9.930;2023-08-06T06:38:29;16.40;99.90
10336;DHT22;5213;53.548;9.930;2023-08-06T06:40:55;16.40;99.90
10336;DHT22;5213;53.548;9.930;2023-08-06T06:43:21;16.50;99.90
10336;DHT22;5213;53.548;9.930;2023-08-06T06:45:47;16.60;99.90
10336;DHT22;5213;53.548;9.930;2023-08-06T06:48:12;16.70;99.90
10336;DHT22;5213;53.548;9.930;2023-08-06T06:50:38;16.80;99.90
10336;DHT22;5213;53.548;9.930;2023-08-06T06:53:06;16.90;99.90
10336;DHT22;5213;53.548;9.930;2023-08-06T06:55:32;16.90;99.90
10336;DHT22;5213;53.548;9.930;2023-08-06T06:57:58;17.10;99.90
10336;DHT22;5213;53.548;9.930;2023-08-06T07:00:23;17.10;99.90
10336;DHT22;5213;53.548;9.930;2023-08-06T07:02:49;17.20;99.90
10336;DHT22;5213;53.548;9.930;2023-08-06T07:05:14;17.30;99.90
10336;DHT22;5213;53.548;9.930;2023-08-06T07:07:40;17.40;99.90
10336;DHT22;5213;53.548;9.930;2023-08-06T07:10:06;17.50;99.90
10336;DHT22;5213;53.548;9.930;2023-08-06T07:12:32;17.40;99.90
10336;DHT22;5213;53.548;9.930;2023-08-06T07:14:57;17.50;99.90
10336;DHT22;5213;53.548;9.930;2023-08-06T07:17:23;17.60;99.90
10336;DHT22;5213;53.548;9.930;2023-08-06T07:19:48;17.50;99.90
10336;DHT22;5213;53.548;9.930;2023-08-06T07:22:14;17.80;99.90
10336;DHT22;5213;53.548;9.930;2023-08-06T07:24:39;18.00;99.90
10336;DHT22;5213;53.548;9.930;2023-08-06T07:27:05;18.10;99.90
10336;DHT22;5213;53.548;9.930;2023-08-06T07:29:31;18.10;99.90
10336;DHT22;5213;53.548;9.930;2023-08-06T07:31:57;18.70;99.90
10336;DHT22;5213;53.548;9.930;2023-08-06T07:34:22;18.90;99.90
10336;DHT22;5213;53.548;9.930;2023-08-06T07:36:48;19.40;99.90
10336;DHT22;5213;53.548;9.930;2023-08-06T07:39:14;19.70;99.90
10336;DHT22;5213;53.548;9.930;2023-08-06T07:41:41;19.80;99.90
10336;DHT22;5213;53.548;9.930;2023-08-06T07:44:07;19.80;99.90
10336;DHT22;5213;53.548;9.930;2023-08-06T07:46:33;20.00;99.90
10336;DHT22;5213;53.548;9.930;2023-08-06T07:48:58;20.20;99.90
10336;DHT22;5213;53.548;9.930;2023-08-06T07:51:24;20.20;99.90
10336;DHT22;5213;53.548;9.930;2023-08-06T07:53:49;20.30;99.90
10336;DHT22;5213;53.548;9.930;2023-08-06T07:56:15;19.90;99.90
10336;DHT22;5213;53.548;9.930;2023-08-06T07:58:41;19.70;99.90
10336;DHT22;5213;53.548;9.930;2023-08-06T08:01:06;19.90;99.90
10336;DHT22;5213;53.548;9.930;2023-08-06T08:03:32;20.00;99.90
10336;DHT22;5213;53.548;9.930;2023-08-06T08:05:58;20.10;99.90
10336;DHT22;5213;53.548;9.930;2023-08-06T08:08:24;20.30;90.30
10336;DHT22;5213;53.548;9.930;2023-08-06T08:10:50;20.40;92.30
10336;DHT22;5213;53.548;9.930;2023-08-06T08:13:15;20.30;90.70
10336;DHT22;5213;53.548;9.930;2023-08-06T08:15:41;19.60;99.90
10336;DHT22;5213;53.548;9.930;2023-08-06T08:18:07;19.40;99.90
10336;DHT22;5213;53.548;9.930;2023-08-06T08:20:33;19.20;99.90
10336;DHT22;5213;53.548;9.930;2023-08-06T08:23:00;19.10;99.90
10336;DHT22;5213;53.548;9.930;2023-08-06T08:25:27;19.10;99.90
10336;DHT22;5213;53.548;9.930;2023-08-06T08:27:53;19.00;99.90
10336;DHT22;5213;53.548;9.930;2023-08-06T08:30:19;19.00;99.90
10336;DHT22;5213;53.548;9.930;2023-08-06T08:32:45;18.90;99.90
10336;DHT22;5213;53.548;9.930;2023-08-06T08:35:10;18.70;99.90
10336;DHT22;5213;53.548;9.930;2023-08-06T08:37:38;18.90;99.90
10336;DHT22;5213;53.548;9.930;2023-08-06T08:40:06;18.90;99.90
10336;DHT22;5213;53.548;9.930;2023-08-06T08:42:32;18.90;99.90
10336;DHT22;5213;53.548;9.930;2023-08-06T08:44:57;18.80;99.90
10336;DHT22;5213;53.548;9.930;2023-08-06T08:47:24;18.80;99.90
10336;DHT22;5213;53.548;9.930;2023-08-06T08:49:53;18.80;99.90
10336;DHT22;5213;53.548;9.930;2023-08-06T08:52:21;18.90;99.90
10336;DHT22;5213;53.548;9.930;2023-08-06T08:54:48;19.00;99.90
10336;DHT22;5213;53.548;9.930;2023-08-06T08:57:18;18.90;99.90
10336;DHT22;5213;53.548;9.930;2023-08-06T08:59:44;19.10;99.90
10336;DHT22;5213;53.548;9.930;2023-08-06T09:02:13;19.30;99.90
10336;DHT22;5213;53.548;9.930;2023-08-06T09:04:41;19.40;99.90
10336;DHT22;5213;53.548;9.930;2023-08-06T09:07:08;19.30;99.90
10336;DHT22;5213;53.548;9.930;2023-08-06T09:09:35;19.10;99.90
10336;DHT22;5213;53.548;9.930;2023-08-06T09:12:14;19.10;99.90
10336;DHT22;5213;53.548;9.930;2023-08-06T09:14:40;19.20;99.90
10336;DHT22;5213;53.548;9.930;2023-08-06T09:17:06;19.40;99.90
10336;DHT22;5213;53.548;9.930;2023-08-06T09:19:32;19.00;99.90
10336;DHT22;5213;53.548;9.930;2023-08-06T09:21:59;19.00;99.90
10336;DHT22;5213;53.548;9.930;2023-08-06T09:24:25;19.00;99.90
10336;DHT22;5213;53.548;9.930;2023-08-06T09:26:54;19.20;99.90
10336;DHT22;5213;53.548;9.930;2023-08-06T09:29:20;19.30;99.90
10336;DHT22;5213;53.548;9.930;2023-08-06T09:31:48;19.00;99.90
10336;DHT22;5213;53.548;9.930;2023-08-06T09:34:22;18.60;99.90
10336;DHT22;5213;53.548;9.930;2023-08-06T09:36:49;18.90;99.90
10336;DHT22;5213;53.548;9.930;2023-08-06T09:39:28;18.60;99.90
10336;DHT22;5213;53.548;9.930;2023-08-06T09:42:01;18.60;99.90
10336;DHT22;5213;53.548;9.930;2023-08-06T09:44:32;18.50;99.90
10336;DHT22;5213;53.548;9.930;2023-08-06T09:46:59;18.40;99.90
10336;DHT22;5213;53.548;9.930;2023-08-06T09:49:26;18.30;99.90
10336;DHT22;5213;53.548;9.930;2023-08-06T09:51:53;18.50;99.90
10336;DHT22;5213;53.548;9.930;2023-08-06T09:54:24;18.60;99.90
10336;DHT22;5213;53.548;9.930;2023-08-06T09:56:50;18.60;99.90
10336;DHT22;5213;53.548;9.930;2023-08-06T09:59:17;18.70;99.90
10336;DHT22;5213;53.548;9.930;2023-08-06T10:01:43;18.70;99.90
10336;DHT22;5213;53.548;9.930;2023-08-06T10:04:09;18.80;99.90
10336;DHT22;5213;53.548;9.930;2023-08-06T10:06:37;18.80;99.90
10336;DHT22;5213;53.548;9.930;2023-08-06T10:09:03;18.80;99.90
10336;DHT22;5213;53.548;9.930;2023-08-06T10:11:30;18.80;99.90
10336;DHT22;5213;53.548;9.930;2023-08-06T10:14:16;18.90;99.90
10336;DHT22;5213;53.548;9.930;2023-08-06T10:16:44;19.10;99.90
10336;DHT22;5213;53.548;9.930;2023-08-06T10:19:12;18.80;99.90
10336;DHT22;5213;53.548;9.930;2023-08-06T10:21:39;18.80;99.90
10336;DHT22;5213;53.548;9.930;2023-08-06T10:24:08;18.90;99.90
10336;DHT22;5213;53.548;9.930;2023-08-06T10:26:36;18.90;99.90
10336;DHT22;5213;53.548;9.930;2023-08-06T10:29:37;19.10;99.90
10336;DHT22;5213;53.548;9.930;2023-08-06T10:32:03;18.90;99.90
10336;DHT22;5213;53.548;9.930;2023-08-06T10:34:56;18.80;99.90
10336;DHT22;5213;53.548;9.930;2023-08-06T10:37:22;18.80;99.90
10336;DHT22;5213;53.548;9.930;2023-08-06T10:39:52;18.80;99.90
10336;DHT22;5213;53.548;9.930;2023-08-06T10:42:20;18.60;99.90
10336;DHT22;5213;53.548;9.930;2023-08-06T10:45:12;18.60;99.90
10336;DHT22;5213;53.548;9.930;2023-08-06T10:47:41;18.60;99.90
10336;DHT22;5213;53.548;9.930;2023-08-06T10:50:17;18.70;99.90
10336;DHT22;5213;53.548;9.930;2023-08-06T10:52:46;18.70;99.90
10336;DHT22;5213;53.548;9.930;2023-08-06T10:55:13;19.00;99.90
10336;DHT22;5213;53.548;9.930;2023-08-06T10:57:39;19.30;99.90
10336;DHT22;5213;53.548;9.930;2023-08-06T11:00:06;19.20;99.90
10336;DHT22;5213;53.548;9.930;2023-08-06T11:02:34;18.90;99.90
10336;DHT22;5213;53.548;9.930;2023-08-06T11:05:08;19.10;99.90
10336;DHT22;5213;53.548;9.930;2023-08-06T11:07:35;18.90;99.90
10336;DHT22;5213;53.548;9.930;2023-08-06T11:10:05;18.80;99.90
10336;DHT22;5213;53.548;9.930;2023-08-06T11:12:32;18.70;99.90
10336;DHT22;5213;53.548;9.930;2023-08-06T11:14:58;18.70;99.90
10336;DHT22;5213;53.548;9.930;2023-08-06T11:17:24;18.70;99.90
10336;DHT22;5213;53.548;9.930;2023-08-06T11:19:51;18.90;99.90
10336;DHT22;5213;53.548;9.930;2023-08-06T11:22:18;18.80;99.90
10336;DHT22;5213;53.548;9.930;2023-08-06T11:24:43;18.70;99.90
10336;DHT22;5213;53.548;9.930;2023-08-06T11:27:16;18.70;99.90
10336;DHT22;5213;53.548;9.930;2023-08-06T11:29:43;18.70;99.90
10336;DHT22;5213;53.548;9.930;2023-08-06T11:32:09;19.10;99.90
10336;DHT22;5213;53.548;9.930;2023-08-06T11:34:36;19.20;99.90
10336;DHT22;5213;53.548;9.930;2023-08-06T11:37:05;19.40;99.90
10336;DHT22;5213;53.548;9.930;2023-08-06T11:39:46;19.60;99.90
10336;DHT22;5213;53.548;9.930;2023-08-06T11:42:12;19.60;99.90
10336;DHT22;5213;53.548;9.930;2023-08-06T11:44:38;19.20;99.90
10336;DHT22;5213;53.548;9.930;2023-08-06T11:47:12;19.00;99.90
10336;DHT22;5213;53.548;9.930;2023-08-06T11:49:46;18.90;99.90
10336;DHT22;5213;53.548;9.930;2023-08-06T11:52:22;19.00;99.90
10336;DHT22;5213;53.548;9.930;2023-08-06T11:55:08;18.70;99.90
10336;DHT22;5213;53.548;9.930;2023-08-06T11:57:38;18.50;99.90
10336;DHT22;5213;53.548;9.930;2023-08-06T12:00:13;18.30;99.90
10336;DHT22;5213;53.548;9.930;2023-08-06T12:02:40;18.30;99.90
10336;DHT22;5213;53.548;9.930;2023-08-06T12:07:59;18.20;99.90
10336;DHT22;5213;53.548;9.930;2023-08-06T12:10:26;18.00;99.90
10336;DHT22;5213;53.548;9.930;2023-08-06T12:12:53;18.10;99.90
10336;DHT22;5213;53.548;9.930;2023-08-06T12:15:19;18.00;99.90
10336;DHT22;5213;53.548;9.930;2023-08-06T12:17:45;18.00;99.90
10336;DHT22;5213;53.548;9.930;2023-08-06T12:20:11;18.00;99.90
10336;DHT22;5213;53.548;9.930;2023-08-06T12:22:38;18.20;99.90
10336;DHT22;5213;53.548;9.930;2023-08-06T12:25:08;18.20;99.90
10336;DHT22;5213;53.548;9.930;2023-08-06T12:27:35;18.20;99.90
10336;DHT22;5213;53.548;9.930;2023-08-06T12:30:00;18.40;99.90
10336;DHT22;5213;53.548;9.930;2023-08-06T12:32:26;18.50;99.90
10336;DHT22;5213;53.548;9.930;2023-08-06T12:34:52;18.40;99.90
10336;DHT22;5213;53.548;9.930;2023-08-06T12:37:18;18.10;99.90
10336;DHT22;5213;53.548;9.930;2023-08-06T12:39:43;18.20;99.90
10336;DHT22;5213;53.548;9.930;2023-08-06T12:42:09;18.50;99.90
10336;DHT22;5213;53.548;9.930;2023-08-06T12:44:36;18.70;99.90
10336;DHT22;5213;53.548;9.930;2023-08-06T12:47:01;19.00;99.90
10336;DHT22;5213;53.548;9.930;2023-08-06T12:49:27;18.70;99.90
10336;DHT22;5213;53.548;9.930;2023-08-06T12:51:54;18.90;99.90
10336;DHT22;5213;53.548;9.930;2023-08-06T12:54:22;19.00;99.90
10336;DHT22;5213;53.548;9.930;2023-08-06T12:56:48;19.20;99.90
10336;DHT22;5213;53.548;9.930;2023-08-06T12:59:15;19.30;99.90
10336;DHT22;5213;53.548;9.930;2023-08-06T13:01:42;19.10;99.90
10336;DHT22;5213;53.548;9.930;2023-08-06T13:04:08;19.00;99.90
10336;DHT22;5213;53.548;9.930;2023-08-06T13:06:33;19.20;99.90
10336;DHT22;5213;53.548;9.930;2023-08-06T13:09:09;19.50;99.90
10336;DHT22;5213;53.548;9.930;2023-08-06T13:11:35;19.20;99.90
10336;DHT22;5213;53.548;9.930;2023-08-06T13:14:09;19.50;99.90
10336;DHT22;5213;53.548;9.930;2023-08-06T13:16:35;20.20;99.90
10336;DHT22;5213;53.548;9.930;2023-08-06T13:19:02;20.30;99.90
10336;DHT22;5213;53.548;9.930;2023-08-06T13:22:13;20.00;99.90
10336;DHT22;5213;53.548;9.930;2023-08-06T13:24:20;20.00;99.90
10336;DHT22;5213;53.548;9.930;2023-08-06T13:26:45;20.40;99.90
10336;DHT22;5213;53.548;9.930;2023-08-06T13:29:11;20.60;99.90
10336;DHT22;5213;53.548;9.930;2023-08-06T13:31:38;20.70;97.00
10336;DHT22;5213;53.548;9.930;2023-08-06T13:34:03;20.80;97.30
10336;DHT22;5213;53.548;9.930;2023-08-06T13:36:30;20.60;99.90
10336;DHT22;5213;53.548;9.930;2023-08-06T13:38:56;20.50;99.90
10336;DHT22;5213;53.548;9.930;2023-08-06T13:41:22;20.40;99.90
10336;DHT22;5213;53.548;9.930;2023-08-06T13:43:48;20.10;99.90
10336;DHT22;5213;53.548;9.930;2023-08-06T13:46:14;19.50;99.90
10336;DHT22;5213;53.548;9.930;2023-08-06T13:48:44;19.30;99.90
10336;DHT22;5213;53.548;9.930;2023-08-06T13:51:11;19.30;99.90
10336;DHT22;5213;53.548;9.930;2023-08-06T13:53:37;19.50;99.90
10336;DHT22;5213;53.548;9.930;2023-08-06T13:56:07;19.50;99.90
10336;DHT22;5213;53.548;9.930;2023-08-06T13:58:35;19.50;99.90
10336;DHT22;5213;53.548;9.930;2023-08-06T14:01:01;19.50;99.90
10336;DHT22;5213;53.548;9.930;2023-08-06T14:03:26;19.50;99.90
10336;DHT22;5213;53.548;9.930;2023-08-06T14:05:52;19.60;99.90
10336;DHT22;5213;53.548;9.930;2023-08-06T14:08:20;19.50;99.90
10336;DHT22;5213;53.548;9.930;2023-08-06T14:10:46;19.60;99.90
10336;DHT22;5213;53.548;9.930;2023-08-06T14:13:11;19.60;99.90
10336;DHT22;5213;53.548;9.930;2023-08-06T14:15:38;19.80;99.90
10336;DHT22;5213;53.548;9.930;2023-08-06T14:18:07;19.70;99.90
10336;DHT22;5213;53.548;9.930;2023-08-06T14:20:35;19.80;99.90
10336;DHT22;5213;53.548;9.930;2023-08-06T14:23:01;19.90;99.90
10336;DHT22;5213;53.548;9.930;2023-08-06T14:25:27;19.20;99.90
10336;DHT22;5213;53.548;9.930;2023-08-06T14:27:53;19.20;99.90
10336;DHT22;5213;53.548;9.930;2023-08-06T14:30:18;18.70;99.90
10336;DHT22;5213;53.548;9.930;2023-08-06T14:32:44;18.40;99.90
10336;DHT22;5213;53.548;9.930;2023-08-06T14:35:10;18.30;99.90
10336;DHT22;5213;53.548;9.930;2023-08-06T14:37:35;18.20;99.90
10336;DHT22;5213;53.548;9.930;2023-08-06T14:40:01;18.00;99.90
10336;DHT22;5213;53.548;9.930;2023-08-06T14:42:26;17.80;99.90
10336;DHT22;5213;53.548;9.930;2023-08-06T14:44:52;17.60;99.90
10336;DHT22;5213;53.548;9.930;2023-08-06T14:47:18;17.60;99.90
10336;DHT22;5213;53.548;9.930;2023-08-06T14:49:43;17.40;99.90
10336;DHT22;5213;53.548;9.930;2023-08-06T14:52:10;17.40;99.90
10336;DHT22;5213;53.548;9.930;2023-08-06T14:54:35;17.40;99.90
10336;DHT22;5213;53.548;9.930;2023-08-06T14:57:01;17.30;99.90
10336;DHT22;5213;53.548;9.930;2023-08-06T14:59:27;17.30;99.90
10336;DHT22;5213;53.548;9.930;2023-08-06T15:01:52;17.40;99.90
10336;DHT22;5213;53.548;9.930;2023-08-06T15:04:18;17.30;99.90
10336;DHT22;5213;53.548;9.930;2023-08-06T15:06:44;17.50;99.90
10336;DHT22;5213;53.548;9.930;2023-08-06T15:09:10;17.40;99.90
10336;DHT22;5213;53.548;9.930;2023-08-06T15:11:36;17.50;99.90
10336;DHT22;5213;53.548;9.930;2023-08-06T15:14:02;17.80;99.90
10336;DHT22;5213;53.548;9.930;2023-08-06T15:16:30;17.90;99.90
10336;DHT22;5213;53.548;9.930;2023-08-06T15:18:56;17.90;99.90
10336;DHT22;5213;53.548;9.930;2023-08-06T15:21:21;18.00;99.90
10336;DHT22;5213;53.548;9.930;2023-08-06T15:23:47;17.90;99.90
10336;DHT22;5213;53.548;9.930;2023-08-06T15:26:12;18.00;99.90
10336;DHT22;5213;53.548;9.930;2023-08-06T15:28:38;17.90;99.90
10336;DHT22;5213;53.548;9.930;2023-08-06T15:31:04;18.10;99.90
10336;DHT22;5213;53.548;9.930;2023-08-06T15:33:31;18.10;99.90
10336;DHT22;5213;53.548;9.930;2023-08-06T15:35:57;18.10;99.90
10336;DHT22;5213;53.548;9.930;2023-08-06T15:38:22;18.30;99.90
10336;DHT22;5213;53.548;9.930;2023-08-06T15:40:48;18.40;99.90
10336;DHT22;5213;53.548;9.930;2023-08-06T15:43:14;18.20;99.90
10336;DHT22;5213;53.548;9.930;2023-08-06T15:45:39;18.30;99.90
10336;DHT22;5213;53.548;9.930;2023-08-06T15:48:05;18.50;99.90
10336;DHT22;5213;53.548;9.930;2023-08-06T15:50:30;18.50;99.90
10336;DHT22;5213;53.548;9.930;2023-08-06T15:52:56;18.40;99.90